sensor_id;sensor_type;location;lat;lon;timestamp;P1;durP1;ratioP1;P2;durP2;ratioP2
27013;SDS011;14556;52.222;4.510;2023-04-03T00:02:23;3.67;;;1.17;;
27013;SDS011;14556;52.222;4.510;2023-04-03T00:04:49;1.73;;;0.90;;
27013;SDS011;14556;52.222;4.510;2023-04-03T00:07:16;1.03;;;0.80;;
27013;SDS011;14556;52.222;4.510;2023-04-03T00:09:42;1.63;;;1.00;;
27013;SDS011;14556;52.222;4.510;2023-04-03T00:12:09;2.07;;;1.20;;
27013;SDS011;14556;52.222;4.510;2023-04-03T00:14:35;3.17;;;1.20;;
27013;SDS011;14556;52.222;4.510;2023-04-03T00:17:02;2.17;;;1.20;;
27013;SDS011;14556;52.222;4.510;2023-04-03T00:19:28;2.77;;;1.00;;
27013;SDS011;14556;52.222;4.510;2023-04-03T00:21:55;2.13;;;1.07;;
27013;SDS011;14556;52.222;4.510;2023-04-03T00:24:22;1.77;;;1.10;;
27013;SDS011;14556;52.222;4.510;2023-04-03T00:26:49;3.00;;;1.00;;
27013;SDS011;14556;52.222;4.510;2023-04-03T00:29:15;3.83;;;1.10;;
27013;SDS011;14556;52.222;4.510;2023-04-03T00:31:42;3.33;;;1.10;;
27013;SDS011;14556;52.222;4.510;2023-04-03T00:34:08;2.13;;;1.20;;
27013;SDS011;14556;52.222;4.510;2023-04-03T00:36:34;1.57;;;0.90;;
27013;SDS011;14556;52.222;4.510;2023-04-03T00:39:01;2.33;;;1.20;;
27013;SDS011;14556;52.222;4.510;2023-04-03T00:41:27;2.67;;;1.40;;
27013;SDS011;14556;52.222;4.510;2023-04-03T00:43:54;1.93;;;1.20;;
27013;SDS011;14556;52.222;4.510;2023-04-03T00:46:20;1.57;;;0.87;;
27013;SDS011;14556;52.222;4.510;2023-04-03T00:48:47;2.93;;;0.70;;
27013;SDS011;14556;52.222;4.510;2023-04-03T00:51:16;4.93;;;1.20;;
27013;SDS011;14556;52.222;4.510;2023-04-03T00:53:54;2.73;;;0.90;;
27013;SDS011;14556;52.222;4.510;2023-04-03T00:56:22;1.53;;;0.77;;
27013;SDS011;14556;52.222;4.510;2023-04-03T00:58:57;2.77;;;0.70;;
27013;SDS011;14556;52.222;4.510;2023-04-03T01:01:25;1.10;;;0.73;;
27013;SDS011;14556;52.222;4.510;2023-04-03T01:03:52;2.00;;;1.10;;
27013;SDS011;14556;52.222;4.510;2023-04-03T01:06:29;1.33;;;1.00;;
27013;SDS011;14556;52.222;4.510;2023-04-03T01:08:58;1.27;;;0.90;;
27013;SDS011;14556;52.222;4.510;2023-04-03T01:11:25;3.30;;;1.00;;
27013;SDS011;14556;52.222;4.510;2023-04-03T01:13:52;1.93;;;0.90;;
27013;SDS011;14556;52.222;4.510;2023-04-03T01:16:19;1.93;;;1.00;;
27013;SDS011;14556;52.222;4.510;2023-04-03T01:18:46;2.70;;;0.80;;
27013;SDS011;14556;52.222;4.510;2023-04-03T01:26:27;2.67;;;1.10;;
27013;SDS011;14556;52.222;4.510;2023-04-03T01:28:54;1.47;;;0.73;;
27013;SDS011;14556;52.222;4.510;2023-04-03T01:31:29;2.80;;;1.00;;
27013;SDS011;14556;52.222;4.510;2023-04-03T01:33:57;1.00;;;0.80;;
27013;SDS011;14556;52.222;4.510;2023-04-03T01:36:29;2.13;;;1.00;;
27013;SDS011;14556;52.222;4.510;2023-04-03T01:38:56;1.77;;;0.87;;
27013;SDS011;14556;52.222;4.510;2023-04-03T01:41:23;2.93;;;0.80;;
27013;SDS011;14556;52.222;4.510;2023-04-03T01:43:49;2.43;;;0.70;;
27013;SDS011;14556;52.222;4.510;2023-04-03T01:46:16;1.17;;;0.93;;
27013;SDS011;14556;52.222;4.510;2023-04-03T01:48:43;1.40;;;0.77;;
27013;SDS011;14556;52.222;4.510;2023-04-03T01:51:09;1.23;;;0.60;;
27013;SDS011;14556;52.222;4.510;2023-04-03T01:53:36;2.47;;;1.00;;
27013;SDS011;14556;52.222;4.510;2023-04-03T01:56:02;1.20;;;0.83;;
27013;SDS011;14556;52.222;4.510;2023-04-03T01:58:29;1.60;;;0.90;;
27013;SDS011;14556;52.222;4.510;2023-04-03T02:00:55;2.83;;;0.80;;
27013;SDS011;14556;52.222;4.510;2023-04-03T02:03:22;2.20;;;0.90;;
27013;SDS011;14556;52.222;4.510;2023-04-03T02:05:49;3.33;;;1.07;;
27013;SDS011;14556;52.222;4.510;2023-04-03T02:08:16;0.70;;;0.70;;
27013;SDS011;14556;52.222;4.510;2023-04-03T02:10:44;1.07;;;0.90;;
27013;SDS011;14556;52.222;4.510;2023-04-03T02:13:12;4.57;;;1.10;;
27013;SDS011;14556;52.222;4.510;2023-04-03T02:15:39;1.70;;;1.07;;
27013;SDS011;14556;52.222;4.510;2023-04-03T02:18:06;4.53;;;1.03;;
27013;SDS011;14556;52.222;4.510;2023-04-03T02:20:33;1.57;;;1.03;;
27013;SDS011;14556;52.222;4.510;2023-04-03T02:22:59;1.23;;;0.90;;
27013;SDS011;14556;52.222;4.510;2023-04-03T02:25:25;1.63;;;0.90;;
27013;SDS011;14556;52.222;4.510;2023-04-03T02:27:52;1.73;;;0.87;;
27013;SDS011;14556;52.222;4.510;2023-04-03T02:30:18;3.17;;;1.13;;
27013;SDS011;14556;52.222;4.510;2023-04-03T02:32:45;1.90;;;1.03;;
27013;SDS011;14556;52.222;4.510;2023-04-03T02:35:11;2.93;;;1.00;;
27013;SDS011;14556;52.222;4.510;2023-04-03T02:37:38;4.33;;;1.00;;
27013;SDS011;14556;52.222;4.510;2023-04-03T02:40:05;2.23;;;0.80;;
27013;SDS011;14556;52.222;4.510;2023-04-03T02:42:32;1.90;;;0.70;;
27013;SDS011;14556;52.222;4.510;2023-04-03T02:44:58;1.17;;;0.73;;
27013;SDS011;14556;52.222;4.510;2023-04-03T02:47:27;2.13;;;1.00;;
27013;SDS011;14556;52.222;4.510;2023-04-03T02:49:53;3.77;;;1.00;;
27013;SDS011;14556;52.222;4.510;2023-04-03T02:52:20;4.70;;;1.23;;
27013;SDS011;14556;52.222;4.510;2023-04-03T02:54:46;2.10;;;1.20;;
27013;SDS011;14556;52.222;4.510;2023-04-03T02:57:13;2.23;;;0.93;;
27013;SDS011;14556;52.222;4.510;2023-04-03T02:59:39;1.63;;;0.93;;
27013;SDS011;14556;52.222;4.510;2023-04-03T03:02:07;3.43;;;1.10;;
27013;SDS011;14556;52.222;4.510;2023-04-03T03:04:34;4.30;;;1.30;;
27013;SDS011;14556;52.222;4.510;2023-04-03T03:07:01;3.27;;;1.07;;
27013;SDS011;14556;52.222;4.510;2023-04-03T03:09:27;3.20;;;1.10;;
27013;SDS011;14556;52.222;4.510;2023-04-03T03:11:56;3.90;;;1.20;;
27013;SDS011;14556;52.222;4.510;2023-04-03T03:14:23;2.47;;;1.17;;
27013;SDS011;14556;52.222;4.510;2023-04-03T03:16:49;2.30;;;1.10;;
27013;SDS011;14556;52.222;4.510;2023-04-03T03:19:16;2.70;;;1.10;;
27013;SDS011;14556;52.222;4.510;2023-04-03T03:21:42;2.03;;;1.07;;
27013;SDS011;14556;52.222;4.510;2023-04-03T03:24:09;3.40;;;1.10;;
27013;SDS011;14556;52.222;4.510;2023-04-03T03:26:35;3.87;;;1.30;;
27013;SDS011;14556;52.222;4.510;2023-04-03T03:29:02;3.37;;;1.10;;
27013;SDS011;14556;52.222;4.510;2023-04-03T03:31:29;2.77;;;1.20;;
27013;SDS011;14556;52.222;4.510;2023-04-03T03:33:56;3.50;;;1.40;;
27013;SDS011;14556;52.222;4.510;2023-04-03T03:36:22;4.30;;;1.30;;
27013;SDS011;14556;52.222;4.510;2023-04-03T03:38:48;2.43;;;1.13;;
27013;SDS011;14556;52.222;4.510;2023-04-03T03:41:15;1.40;;;1.00;;
27013;SDS011;14556;52.222;4.510;2023-04-03T03:43:43;1.77;;;1.00;;
27013;SDS011;14556;52.222;4.510;2023-04-03T03:46:09;4.13;;;1.17;;
27013;SDS011;14556;52.222;4.510;2023-04-03T03:48:38;1.43;;;1.13;;
27013;SDS011;14556;52.222;4.510;2023-04-03T03:51:05;3.13;;;1.37;;
27013;SDS011;14556;52.222;4.510;2023-04-03T03:53:32;3.03;;;1.30;;
27013;SDS011;14556;52.222;4.510;2023-04-03T03:55:59;4.23;;;1.43;;
27013;SDS011;14556;52.222;4.510;2023-04-03T03:58:26;2.47;;;1.10;;
27013;SDS011;14556;52.222;4.510;2023-04-03T04:00:53;3.53;;;0.80;;
27013;SDS011;14556;52.222;4.510;2023-04-03T04:03:19;3.07;;;1.27;;
27013;SDS011;14556;52.222;4.510;2023-04-03T04:05:47;1.90;;;0.97;;
27013;SDS011;14556;52.222;4.510;2023-04-03T04:08:13;3.03;;;1.47;;
27013;SDS011;14556;52.222;4.510;2023-04-03T04:10:40;2.20;;;0.93;;
27013;SDS011;14556;52.222;4.510;2023-04-03T04:13:06;5.43;;;1.40;;
27013;SDS011;14556;52.222;4.510;2023-04-03T04:15:32;2.87;;;1.53;;
27013;SDS011;14556;52.222;4.510;2023-04-03T04:17:59;1.73;;;1.20;;
27013;SDS011;14556;52.222;4.510;2023-04-03T04:20:25;3.90;;;1.20;;
27013;SDS011;14556;52.222;4.510;2023-04-03T04:22:52;1.93;;;1.13;;
27013;SDS011;14556;52.222;4.510;2023-04-03T04:25:18;4.63;;;1.30;;
27013;SDS011;14556;52.222;4.510;2023-04-03T04:27:45;1.97;;;1.10;;
27013;SDS011;14556;52.222;4.510;2023-04-03T04:30:11;3.97;;;1.33;;
27013;SDS011;14556;52.222;4.510;2023-04-03T04:32:38;3.20;;;1.27;;
27013;SDS011;14556;52.222;4.510;2023-04-03T04:35:04;3.17;;;1.50;;
27013;SDS011;14556;52.222;4.510;2023-04-03T04:37:31;5.70;;;1.23;;
27013;SDS011;14556;52.222;4.510;2023-04-03T04:39:58;3.30;;;1.20;;
27013;SDS011;14556;52.222;4.510;2023-04-03T04:42:24;2.93;;;1.30;;
27013;SDS011;14556;52.222;4.510;2023-04-03T04:44:51;1.93;;;1.00;;
27013;SDS011;14556;52.222;4.510;2023-04-03T04:47:18;2.20;;;1.27;;
27013;SDS011;14556;52.222;4.510;2023-04-03T04:49:45;6.17;;;1.63;;
27013;SDS011;14556;52.222;4.510;2023-04-03T04:52:13;4.70;;;1.40;;
27013;SDS011;14556;52.222;4.510;2023-04-03T04:54:41;2.60;;;1.27;;
27013;SDS011;14556;52.222;4.510;2023-04-03T04:57:08;2.77;;;1.33;;
27013;SDS011;14556;52.222;4.510;2023-04-03T04:59:34;4.43;;;1.80;;
27013;SDS011;14556;52.222;4.510;2023-04-03T05:02:01;2.07;;;1.20;;
27013;SDS011;14556;52.222;4.510;2023-04-03T05:04:27;8.50;;;1.70;;
27013;SDS011;14556;52.222;4.510;2023-04-03T05:06:54;4.03;;;1.50;;
27013;SDS011;14556;52.222;4.510;2023-04-03T05:09:20;3.57;;;1.27;;
27013;SDS011;14556;52.222;4.510;2023-04-03T05:11:47;4.00;;;1.60;;
27013;SDS011;14556;52.222;4.510;2023-04-03T05:14:14;5.60;;;1.90;;
27013;SDS011;14556;52.222;4.510;2023-04-03T05:16:40;2.67;;;1.73;;
27013;SDS011;14556;52.222;4.510;2023-04-03T05:19:06;3.03;;;1.60;;
27013;SDS011;14556;52.222;4.510;2023-04-03T05:21:33;4.87;;;1.83;;
27013;SDS011;14556;52.222;4.510;2023-04-03T05:23:59;4.97;;;1.70;;
27013;SDS011;14556;52.222;4.510;2023-04-03T05:26:29;2.67;;;1.40;;
27013;SDS011;14556;52.222;4.510;2023-04-03T05:28:56;3.00;;;1.30;;
27013;SDS011;14556;52.222;4.510;2023-04-03T05:31:22;6.13;;;1.33;;
27013;SDS011;14556;52.222;4.510;2023-04-03T05:33:49;3.17;;;1.57;;
27013;SDS011;14556;52.222;4.510;2023-04-03T05:36:15;2.80;;;1.67;;
27013;SDS011;14556;52.222;4.510;2023-04-03T05:38:44;4.07;;;1.67;;
27013;SDS011;14556;52.222;4.510;2023-04-03T05:41:11;6.27;;;1.87;;
27013;SDS011;14556;52.222;4.510;2023-04-03T05:43:38;3.67;;;1.50;;
27013;SDS011;14556;52.222;4.510;2023-04-03T05:46:09;6.50;;;1.47;;
27013;SDS011;14556;52.222;4.510;2023-04-03T05:48:35;3.33;;;1.33;;
27013;SDS011;14556;52.222;4.510;2023-04-03T05:51:03;2.67;;;1.60;;
27013;SDS011;14556;52.222;4.510;2023-04-03T05:53:30;3.97;;;1.63;;
27013;SDS011;14556;52.222;4.510;2023-04-03T05:55:57;4.63;;;1.80;;
27013;SDS011;14556;52.222;4.510;2023-04-03T05:58:24;7.27;;;1.83;;
27013;SDS011;14556;52.222;4.510;2023-04-03T06:00:50;4.40;;;1.70;;
27013;SDS011;14556;52.222;4.510;2023-04-03T06:03:16;4.17;;;1.83;;
27013;SDS011;14556;52.222;4.510;2023-04-03T06:05:44;2.33;;;1.50;;
27013;SDS011;14556;52.222;4.510;2023-04-03T06:08:10;3.63;;;1.50;;
27013;SDS011;14556;52.222;4.510;2023-04-03T06:10:37;4.80;;;1.33;;
27013;SDS011;14556;52.222;4.510;2023-04-03T06:13:04;3.70;;;1.60;;
27013;SDS011;14556;52.222;4.510;2023-04-03T06:15:30;4.77;;;1.40;;
27013;SDS011;14556;52.222;4.510;2023-04-03T06:17:58;4.23;;;1.60;;
27013;SDS011;14556;52.222;4.510;2023-04-03T06:20:24;5.53;;;1.47;;
27013;SDS011;14556;52.222;4.510;2023-04-03T06:22:52;5.27;;;1.70;;
27013;SDS011;14556;52.222;4.510;2023-04-03T06:25:21;4.07;;;2.20;;
27013;SDS011;14556;52.222;4.510;2023-04-03T06:27:48;2.60;;;1.50;;
27013;SDS011;14556;52.222;4.510;2023-04-03T06:30:15;3.80;;;1.73;;
27013;SDS011;14556;52.222;4.510;2023-04-03T06:32:42;3.63;;;1.67;;
27013;SDS011;14556;52.222;4.510;2023-04-03T06:35:09;2.77;;;1.80;;
27013;SDS011;14556;52.222;4.510;2023-04-03T06:37:35;5.57;;;2.10;;
27013;SDS011;14556;52.222;4.510;2023-04-03T06:40:02;10.90;;;2.30;;
27013;SDS011;14556;52.222;4.510;2023-04-03T06:42:29;3.03;;;1.80;;
27013;SDS011;14556;52.222;4.510;2023-04-03T06:44:55;2.90;;;1.70;;
27013;SDS011;14556;52.222;4.510;2023-04-03T06:47:22;3.67;;;1.63;;
27013;SDS011;14556;52.222;4.510;2023-04-03T06:49:48;2.70;;;1.70;;
27013;SDS011;14556;52.222;4.510;2023-04-03T06:52:14;2.70;;;1.60;;
27013;SDS011;14556;52.222;4.510;2023-04-03T06:54:41;8.93;;;2.00;;
27013;SDS011;14556;52.222;4.510;2023-04-03T06:57:07;4.47;;;1.50;;
27013;SDS011;14556;52.222;4.510;2023-04-03T06:59:34;7.73;;;1.87;;
27013;SDS011;14556;52.222;4.510;2023-04-03T07:02:01;10.50;;;2.50;;
27013;SDS011;14556;52.222;4.510;2023-04-03T07:04:27;7.80;;;1.57;;
27013;SDS011;14556;52.222;4.510;2023-04-03T07:06:54;3.93;;;1.60;;
27013;SDS011;14556;52.222;4.510;2023-04-03T07:09:21;3.80;;;1.40;;
27013;SDS011;14556;52.222;4.510;2023-04-03T07:11:48;3.93;;;1.90;;
27013;SDS011;14556;52.222;4.510;2023-04-03T07:14:14;5.57;;;1.53;;
27013;SDS011;14556;52.222;4.510;2023-04-03T07:16:41;2.77;;;1.40;;
27013;SDS011;14556;52.222;4.510;2023-04-03T07:19:08;4.70;;;1.83;;
27013;SDS011;14556;52.222;4.510;2023-04-03T07:21:35;4.10;;;1.53;;
27013;SDS011;14556;52.222;4.510;2023-04-03T07:24:01;3.20;;;1.60;;
27013;SDS011;14556;52.222;4.510;2023-04-03T07:26:28;4.97;;;1.70;;
27013;SDS011;14556;52.222;4.510;2023-04-03T07:28:54;4.83;;;1.70;;
27013;SDS011;14556;52.222;4.510;2023-04-03T07:31:21;4.10;;;1.60;;
27013;SDS011;14556;52.222;4.510;2023-04-03T07:33:47;3.67;;;1.43;;
27013;SDS011;14556;52.222;4.510;2023-04-03T07:36:17;4.80;;;1.70;;
27013;SDS011;14556;52.222;4.510;2023-04-03T07:38:44;2.50;;;1.43;;
27013;SDS011;14556;52.222;4.510;2023-04-03T07:41:15;3.20;;;1.63;;
27013;SDS011;14556;52.222;4.510;2023-04-03T07:43:44;4.43;;;1.63;;
27013;SDS011;14556;52.222;4.510;2023-04-03T07:46:11;6.70;;;1.33;;
27013;SDS011;14556;52.222;4.510;2023-04-03T07:48:37;3.00;;;1.73;;
27013;SDS011;14556;52.222;4.510;2023-04-03T07:51:04;5.83;;;1.40;;
27013;SDS011;14556;52.222;4.510;2023-04-03T07:53:30;2.63;;;1.43;;
27013;SDS011;14556;52.222;4.510;2023-04-03T07:55:57;4.83;;;1.50;;
27013;SDS011;14556;52.222;4.510;2023-04-03T07:58:24;3.90;;;1.20;;
27013;SDS011;14556;52.222;4.510;2023-04-03T08:00:51;6.27;;;1.53;;
27013;SDS011;14556;52.222;4.510;2023-04-03T08:03:18;3.60;;;1.40;;
27013;SDS011;14556;52.222;4.510;2023-04-03T08:05:45;6.70;;;1.70;;
27013;SDS011;14556;52.222;4.510;2023-04-03T08:08:13;1.90;;;1.20;;
27013;SDS011;14556;52.222;4.510;2023-04-03T08:10:39;3.67;;;1.37;;
27013;SDS011;14556;52.222;4.510;2023-04-03T08:13:06;2.90;;;1.20;;
27013;SDS011;14556;52.222;4.510;2023-04-03T08:15:33;10.47;;;1.70;;
27013;SDS011;14556;52.222;4.510;2023-04-03T08:17:59;3.83;;;1.57;;
27013;SDS011;14556;52.222;4.510;2023-04-03T08:20:27;4.07;;;1.27;;
27013;SDS011;14556;52.222;4.510;2023-04-03T08:22:53;2.97;;;1.30;;
27013;SDS011;14556;52.222;4.510;2023-04-03T08:25:20;5.27;;;1.40;;
27013;SDS011;14556;52.222;4.510;2023-04-03T08:27:46;2.77;;;1.47;;
27013;SDS011;14556;52.222;4.510;2023-04-03T08:30:14;2.30;;;1.23;;
27013;SDS011;14556;52.222;4.510;2023-04-03T08:32:40;4.17;;;1.30;;
27013;SDS011;14556;52.222;4.510;2023-04-03T08:35:10;3.10;;;1.03;;
27013;SDS011;14556;52.222;4.510;2023-04-03T08:37:37;2.87;;;1.57;;
27013;SDS011;14556;52.222;4.510;2023-04-03T08:40:05;4.10;;;1.30;;
27013;SDS011;14556;52.222;4.510;2023-04-03T08:45:13;2.00;;;1.20;;
27013;SDS011;14556;52.222;4.510;2023-04-03T08:50:31;2.33;;;1.47;;
27013;SDS011;14556;52.222;4.510;2023-04-03T08:52:58;3.23;;;1.20;;
27013;SDS011;14556;52.222;4.510;2023-04-03T08:55:29;2.93;;;1.00;;
27013;SDS011;14556;52.222;4.510;2023-04-03T08:58:01;1.77;;;1.00;;
27013;SDS011;14556;52.222;4.510;2023-04-03T09:00:34;4.07;;;1.03;;
27013;SDS011;14556;52.222;4.510;2023-04-03T09:03:04;2.30;;;1.00;;
27013;SDS011;14556;52.222;4.510;2023-04-03T09:05:40;2.83;;;0.87;;
27013;SDS011;14556;52.222;4.510;2023-04-03T09:08:22;3.80;;;1.10;;
27013;SDS011;14556;52.222;4.510;2023-04-03T09:10:51;3.57;;;1.20;;
27013;SDS011;14556;52.222;4.510;2023-04-03T09:15:44;1.00;;;0.70;;
27013;SDS011;14556;52.222;4.510;2023-04-03T09:18:21;1.03;;;0.73;;
27013;SDS011;14556;52.222;4.510;2023-04-03T09:23:26;2.03;;;0.77;;
27013;SDS011;14556;52.222;4.510;2023-04-03T09:25:56;2.47;;;0.60;;
27013;SDS011;14556;52.222;4.510;2023-04-03T09:28:24;3.30;;;1.07;;
27013;SDS011;14556;52.222;4.510;2023-04-03T09:30:51;1.17;;;0.57;;
27013;SDS011;14556;52.222;4.510;2023-04-03T09:33:18;2.20;;;0.87;;
27013;SDS011;14556;52.222;4.510;2023-04-03T09:35:45;1.60;;;0.80;;
27013;SDS011;14556;52.222;4.510;2023-04-03T09:38:17;3.03;;;0.77;;
27013;SDS011;14556;52.222;4.510;2023-04-03T09:40:46;1.73;;;0.70;;
27013;SDS011;14556;52.222;4.510;2023-04-03T09:45:47;2.23;;;0.73;;
27013;SDS011;14556;52.222;4.510;2023-04-03T09:53:36;1.40;;;0.80;;
27013;SDS011;14556;52.222;4.510;2023-04-03T09:58:43;1.23;;;0.70;;
27013;SDS011;14556;52.222;4.510;2023-04-03T10:01:56;2.60;;;1.00;;
27013;SDS011;14556;52.222;4.510;2023-04-03T10:06:47;1.97;;;0.70;;
27013;SDS011;14556;52.222;4.510;2023-04-03T10:14:41;3.63;;;0.87;;
27013;SDS011;14556;52.222;4.510;2023-04-03T10:17:29;1.63;;;0.70;;
27013;SDS011;14556;52.222;4.510;2023-04-03T10:20:10;2.00;;;0.80;;
27013;SDS011;14556;52.222;4.510;2023-04-03T10:22:56;1.57;;;0.93;;
27013;SDS011;14556;52.222;4.510;2023-04-03T10:26:14;3.40;;;0.90;;
27013;SDS011;14556;52.222;4.510;2023-04-03T10:33:53;1.00;;;0.77;;
27013;SDS011;14556;52.222;4.510;2023-04-03T10:46:42;1.17;;;0.50;;
27013;SDS011;14556;52.222;4.510;2023-04-03T10:49:16;2.40;;;0.80;;
27013;SDS011;14556;52.222;4.510;2023-04-03T10:51:47;1.83;;;0.70;;
27013;SDS011;14556;52.222;4.510;2023-04-03T10:54:20;2.13;;;0.77;;
27013;SDS011;14556;52.222;4.510;2023-04-03T10:56:50;1.93;;;0.63;;
27013;SDS011;14556;52.222;4.510;2023-04-03T11:02:38;1.60;;;0.70;;
27013;SDS011;14556;52.222;4.510;2023-04-03T11:05:17;2.83;;;0.77;;
27013;SDS011;14556;52.222;4.510;2023-04-03T11:07:48;1.53;;;0.70;;
27013;SDS011;14556;52.222;4.510;2023-04-03T11:10:21;2.30;;;1.00;;
27013;SDS011;14556;52.222;4.510;2023-04-03T11:12:56;1.57;;;0.63;;
27013;SDS011;14556;52.222;4.510;2023-04-03T11:15:25;0.90;;;0.60;;
27013;SDS011;14556;52.222;4.510;2023-04-03T11:17:54;0.80;;;0.50;;
27013;SDS011;14556;52.222;4.510;2023-04-03T11:20:26;0.67;;;0.50;;
27013;SDS011;14556;52.222;4.510;2023-04-03T11:22:57;1.80;;;0.83;;
27013;SDS011;14556;52.222;4.510;2023-04-03T11:25:25;1.10;;;0.80;;
27013;SDS011;14556;52.222;4.510;2023-04-03T11:27:56;1.63;;;0.83;;
27013;SDS011;14556;52.222;4.510;2023-04-03T11:35:59;0.90;;;0.40;;
27013;SDS011;14556;52.222;4.510;2023-04-03T11:38:36;1.00;;;0.47;;
27013;SDS011;14556;52.222;4.510;2023-04-03T11:41:07;0.60;;;0.57;;
27013;SDS011;14556;52.222;4.510;2023-04-03T11:43:39;0.93;;;0.50;;
27013;SDS011;14556;52.222;4.510;2023-04-03T11:46:06;0.60;;;0.40;;
27013;SDS011;14556;52.222;4.510;2023-04-03T11:48:43;1.23;;;0.40;;
27013;SDS011;14556;52.222;4.510;2023-04-03T11:53:42;0.70;;;0.33;;
27013;SDS011;14556;52.222;4.510;2023-04-03T11:58:35;0.87;;;0.40;;
27013;SDS011;14556;52.222;4.510;2023-04-03T12:01:06;1.43;;;0.50;;
27013;SDS011;14556;52.222;4.510;2023-04-03T12:03:34;1.20;;;0.50;;
27013;SDS011;14556;52.222;4.510;2023-04-03T12:08:46;2.33;;;0.70;;
27013;SDS011;14556;52.222;4.510;2023-04-03T12:13:40;1.13;;;0.50;;
27013;SDS011;14556;52.222;4.510;2023-04-03T12:16:18;1.83;;;0.63;;
27013;SDS011;14556;52.222;4.510;2023-04-03T12:21:13;2.50;;;0.70;;
27013;SDS011;14556;52.222;4.510;2023-04-03T12:26:29;1.13;;;0.60;;
27013;SDS011;14556;52.222;4.510;2023-04-03T12:31:58;0.77;;;0.60;;
27013;SDS011;14556;52.222;4.510;2023-04-03T12:37:16;0.50;;;0.40;;
27013;SDS011;14556;52.222;4.510;2023-04-03T12:42:42;0.77;;;0.53;;
27013;SDS011;14556;52.222;4.510;2023-04-03T12:45:19;0.60;;;0.40;;
27013;SDS011;14556;52.222;4.510;2023-04-03T12:47:45;4.67;;;0.80;;
27013;SDS011;14556;52.222;4.510;2023-04-03T12:50:30;1.63;;;0.53;;
27013;SDS011;14556;52.222;4.510;2023-04-03T12:53:06;1.60;;;0.60;;
27013;SDS011;14556;52.222;4.510;2023-04-03T12:55:33;1.80;;;0.40;;
27013;SDS011;14556;52.222;4.510;2023-04-03T13:00:42;1.10;;;0.67;;
27013;SDS011;14556;52.222;4.510;2023-04-03T13:03:22;0.47;;;0.37;;
27013;SDS011;14556;52.222;4.510;2023-04-03T13:05:50;1.43;;;0.67;;
27013;SDS011;14556;52.222;4.510;2023-04-03T13:08:16;2.73;;;0.40;;
27013;SDS011;14556;52.222;4.510;2023-04-03T13:11:30;3.00;;;0.90;;
27013;SDS011;14556;52.222;4.510;2023-04-03T13:13:35;1.73;;;0.60;;
27013;SDS011;14556;52.222;4.510;2023-04-03T13:16:07;2.40;;;0.77;;
27013;SDS011;14556;52.222;4.510;2023-04-03T13:18:36;0.50;;;0.50;;
27013;SDS011;14556;52.222;4.510;2023-04-03T13:21:13;1.93;;;0.63;;
27013;SDS011;14556;52.222;4.510;2023-04-03T13:23:43;0.40;;;0.40;;
27013;SDS011;14556;52.222;4.510;2023-04-03T13:26:10;0.70;;;0.47;;
27013;SDS011;14556;52.222;4.510;2023-04-03T13:28:39;1.17;;;0.60;;
27013;SDS011;14556;52.222;4.510;2023-04-03T13:31:17;1.17;;;0.63;;
27013;SDS011;14556;52.222;4.510;2023-04-03T13:33:56;0.90;;;0.50;;
27013;SDS011;14556;52.222;4.510;2023-04-03T13:36:31;4.07;;;0.80;;
27013;SDS011;14556;52.222;4.510;2023-04-03T13:39:05;2.70;;;0.73;;
27013;SDS011;14556;52.222;4.510;2023-04-03T13:41:34;1.47;;;0.60;;
27013;SDS011;14556;52.222;4.510;2023-04-03T13:46:43;1.37;;;0.50;;
27013;SDS011;14556;52.222;4.510;2023-04-03T13:49:22;2.00;;;0.60;;
27013;SDS011;14556;52.222;4.510;2023-04-03T13:51:55;1.47;;;0.67;;
27013;SDS011;14556;52.222;4.510;2023-04-03T13:54:36;1.13;;;0.80;;
27013;SDS011;14556;52.222;4.510;2023-04-03T13:57:03;1.33;;;0.50;;
27013;SDS011;14556;52.222;4.510;2023-04-03T13:59:36;0.60;;;0.50;;
27013;SDS011;14556;52.222;4.510;2023-04-03T14:04:30;1.90;;;0.57;;
27013;SDS011;14556;52.222;4.510;2023-04-03T14:06:57;2.27;;;0.80;;
27013;SDS011;14556;52.222;4.510;2023-04-03T14:09:26;0.67;;;0.40;;
27013;SDS011;14556;52.222;4.510;2023-04-03T14:11:54;0.63;;;0.50;;
27013;SDS011;14556;52.222;4.510;2023-04-03T14:14:22;2.43;;;0.70;;
27013;SDS011;14556;52.222;4.510;2023-04-03T14:16:52;2.07;;;0.90;;
27013;SDS011;14556;52.222;4.510;2023-04-03T14:19:25;1.53;;;0.70;;
27013;SDS011;14556;52.222;4.510;2023-04-03T14:21:53;1.00;;;0.70;;
27013;SDS011;14556;52.222;4.510;2023-04-03T14:24:20;2.50;;;0.70;;
27013;SDS011;14556;52.222;4.510;2023-04-03T14:26:47;2.87;;;0.60;;
27013;SDS011;14556;52.222;4.510;2023-04-03T14:29:14;0.77;;;0.60;;
27013;SDS011;14556;52.222;4.510;2023-04-03T14:31:41;1.30;;;0.60;;
27013;SDS011;14556;52.222;4.510;2023-04-03T14:34:09;2.47;;;0.80;;
27013;SDS011;14556;52.222;4.510;2023-04-03T14:36:35;0.97;;;0.60;;
27013;SDS011;14556;52.222;4.510;2023-04-03T14:39:03;1.70;;;0.80;;
27013;SDS011;14556;52.222;4.510;2023-04-03T14:41:30;1.37;;;0.60;;
27013;SDS011;14556;52.222;4.510;2023-04-03T14:43:56;1.80;;;0.60;;
27013;SDS011;14556;52.222;4.510;2023-04-03T14:49:14;5.03;;;0.90;;
27013;SDS011;14556;52.222;4.510;2023-04-03T14:51:41;2.30;;;0.80;;
27013;SDS011;14556;52.222;4.510;2023-04-03T14:54:13;2.70;;;0.73;;
27013;SDS011;14556;52.222;4.510;2023-04-03T14:56:39;1.23;;;0.60;;
27013;SDS011;14556;52.222;4.510;2023-04-03T14:59:09;1.30;;;0.60;;
27013;SDS011;14556;52.222;4.510;2023-04-03T15:01:37;2.33;;;0.70;;
27013;SDS011;14556;52.222;4.510;2023-04-03T15:04:10;4.83;;;0.70;;
27013;SDS011;14556;52.222;4.510;2023-04-03T15:06:38;5.73;;;1.00;;
27013;SDS011;14556;52.222;4.510;2023-04-03T15:09:04;1.40;;;0.60;;
27013;SDS011;14556;52.222;4.510;2023-04-03T15:11:30;2.00;;;0.70;;
27013;SDS011;14556;52.222;4.510;2023-04-03T15:13:57;2.00;;;0.87;;
27013;SDS011;14556;52.222;4.510;2023-04-03T15:16:23;1.20;;;0.87;;
27013;SDS011;14556;52.222;4.510;2023-04-03T15:18:50;2.57;;;0.80;;
27013;SDS011;14556;52.222;4.510;2023-04-03T15:21:16;1.70;;;0.70;;
27013;SDS011;14556;52.222;4.510;2023-04-03T15:23:43;1.43;;;0.80;;
27013;SDS011;14556;52.222;4.510;2023-04-03T15:26:09;1.33;;;0.70;;
27013;SDS011;14556;52.222;4.510;2023-04-03T15:28:37;3.07;;;0.80;;
27013;SDS011;14556;52.222;4.510;2023-04-03T15:31:03;2.93;;;0.80;;
27013;SDS011;14556;52.222;4.510;2023-04-03T15:33:31;1.07;;;0.70;;
27013;SDS011;14556;52.222;4.510;2023-04-03T15:35:57;2.30;;;1.20;;
27013;SDS011;14556;52.222;4.510;2023-04-03T15:38:32;1.40;;;0.80;;
27013;SDS011;14556;52.222;4.510;2023-04-03T15:40:58;3.80;;;0.93;;
27013;SDS011;14556;52.222;4.510;2023-04-03T15:43:25;2.23;;;1.10;;
27013;SDS011;14556;52.222;4.510;2023-04-03T15:45:52;1.60;;;0.70;;
27013;SDS011;14556;52.222;4.510;2023-04-03T15:48:21;1.30;;;0.80;;
27013;SDS011;14556;52.222;4.510;2023-04-03T15:50:48;1.77;;;0.90;;
27013;SDS011;14556;52.222;4.510;2023-04-03T15:53:14;1.43;;;0.60;;
27013;SDS011;14556;52.222;4.510;2023-04-03T15:55:41;1.63;;;0.97;;
27013;SDS011;14556;52.222;4.510;2023-04-03T15:58:08;3.37;;;1.30;;
27013;SDS011;14556;52.222;4.510;2023-04-03T16:00:34;0.80;;;0.70;;
27013;SDS011;14556;52.222;4.510;2023-04-03T16:03:04;3.87;;;0.70;;
27013;SDS011;14556;52.222;4.510;2023-04-03T16:05:31;3.40;;;1.07;;
27013;SDS011;14556;52.222;4.510;2023-04-03T16:07:58;2.73;;;1.07;;
27013;SDS011;14556;52.222;4.510;2023-04-03T16:10:27;1.07;;;0.83;;
27013;SDS011;14556;52.222;4.510;2023-04-03T16:12:54;1.73;;;0.83;;
27013;SDS011;14556;52.222;4.510;2023-04-03T16:15:20;4.23;;;0.90;;
27013;SDS011;14556;52.222;4.510;2023-04-03T16:17:47;1.77;;;1.20;;
27013;SDS011;14556;52.222;4.510;2023-04-03T16:20:15;1.83;;;0.60;;
27013;SDS011;14556;52.222;4.510;2023-04-03T16:22:43;1.80;;;0.83;;
27013;SDS011;14556;52.222;4.510;2023-04-03T16:25:10;1.43;;;0.97;;
27013;SDS011;14556;52.222;4.510;2023-04-03T16:27:37;4.40;;;1.00;;
27013;SDS011;14556;52.222;4.510;2023-04-03T16:30:04;1.90;;;0.90;;